Time;durP1;ratioP1;P1;durP2;ratioP2;P2;SDS_P1;SDS_P2;PMS_P1;PMS_P2;Temp;Humidity;BMP_temperature;BMP_pressure;BME280_temperature;BME280_humidity;BME280_pressure;Samples;Min_cycle;Max_cycle;Signal;HPM_P1;HPM_P2
2021/10/14 00:00:36;;;;;;;16.98;10.38;;;;;;;3.34;78.39;99131.16;4933063;29;20031;-70
2021/10/14 00:03:05;;;;;;;18.35;10.20;;;;;;;3.33;77.83;99129.53;4951656;29;20031;-71
2021/10/14 00:05:30;;;;;;;19.17;10.35;;;;;;;3.29;77.76;99134.56;4949585;28;20066;-71
2021/10/14 00:07:56;;;;;;;18.98;9.85;;;;;;;3.24;78.21;99132.56;4950700;29;20034;-71
2021/10/14 00:10:21;;;;;;;37.58;22.85;;;;;;;3.22;79.06;99134.66;4934070;29;20055;-71
2021/10/14 00:12:48;;;;;;;24.65;16.08;;;;;;;3.24;78.42;99134.44;4917669;29;20034;-71
2021/10/14 00:15:13;;;;;;;15.98;10.57;;;;;;;3.27;78.49;99129.38;4951894;29;20054;-70
2021/10/14 00:17:39;;;;;;;15.77;10.05;;;;;;;3.28;77.93;99122.06;4951636;29;20097;-70
2021/10/14 00:20:06;;;;;;;17.98;8.93;;;;;;;3.32;78.27;99125.97;4951852;29;20027;-71
2021/10/14 00:22:31;;;;;;;16.13;9.70;;;;;;;3.34;78.72;99125.75;4952050;29;20486;-71
2021/10/14 00:24:57;;;;;;;14.85;8.40;;;;;;;3.35;78.06;99120.09;4951905;28;20099;-71
2021/10/14 00:27:22;;;;;;;17.88;9.00;;;;;;;3.37;78.50;99125.28;4954991;29;20031;-72
2021/10/14 00:29:48;;;;;;;19.10;10.10;;;;;;;3.36;77.95;99123.63;4955408;29;20035;-71
2021/10/14 00:32:13;;;;;;;14.77;8.80;;;;;;;3.35;78.16;99114.66;4955525;29;20125;-71
2021/10/14 00:34:38;;;;;;;14.38;8.73;;;;;;;3.34;78.06;99123.84;4955417;29;20028;-71
2021/10/14 00:37:04;;;;;;;15.02;9.00;;;;;;;3.35;78.46;99121.97;4955660;29;20078;-71
2021/10/14 00:39:29;;;;;;;17.42;9.95;;;;;;;3.36;78.31;99120.94;4955335;29;20039;-72
2021/10/14 00:41:55;;;;;;;16.63;8.32;;;;;;;3.35;78.49;99117.38;4955516;29;20038;-72
2021/10/14 00:44:20;;;;;;;15.75;8.88;;;;;;;3.34;77.50;99117.63;4955271;29;20027;-71
2021/10/14 00:46:53;;;;;;;20.77;10.52;;;;;;;3.32;78.20;99117.84;4954711;29;20041;-71
2021/10/14 00:49:19;;;;;;;16.92;9.43;;;;;;;3.33;77.82;99119.47;4953899;29;20023;-72
2021/10/14 00:51:46;;;;;;;17.27;9.15;;;;;;;3.33;77.58;99116.78;4953760;29;20563;-72
2021/10/14 00:54:13;;;;;;;16.10;9.55;;;;;;;3.28;77.31;99106.63;4954821;29;20086;-72
2021/10/14 00:56:41;;;;;;;17.50;9.88;;;;;;;3.24;77.43;99116.28;4937851;29;20026;-71
2021/10/14 00:59:07;;;;;;;15.27;9.65;;;;;;;3.22;77.16;99112.97;4953648;29;20027;-71
2021/10/14 01:01:32;;;;;;;20.27;10.02;;;;;;;3.20;77.54;99122.41;4953554;29;20029;-71
2021/10/14 01:03:58;;;;;;;14.63;8.70;;;;;;;3.19;78.06;99118.06;4952907;29;20392;-70
2021/10/14 01:06:24;;;;;;;15.00;8.50;;;;;;;3.17;77.45;99114.75;4953757;29;20030;-71
2021/10/14 01:08:50;;;;;;;16.02;9.55;;;;;;;3.19;77.70;99118.06;4952424;29;20027;-70
2021/10/14 01:11:16;;;;;;;22.92;14.88;;;;;;;3.20;78.27;99122.41;4953414;29;20066;-71
2021/10/14 01:13:41;;;;;;;17.73;11.50;;;;;;;3.22;77.91;99126.53;4935814;29;20392;-71
2021/10/14 01:16:06;;;;;;;14.80;9.13;;;;;;;3.23;77.29;99119.25;4953430;29;20042;-71
2021/10/14 01:18:32;;;;;;;17.80;9.55;;;;;;;3.22;77.54;99123.00;4953024;29;20027;-71
2021/10/14 01:20:57;;;;;;;20.23;9.65;;;;;;;3.20;78.37;99120.53;4953528;29;20030;-71
2021/10/14 01:23:23;;;;;;;14.60;8.75;;;;;;;3.20;78.30;99130.56;4953271;29;20409;-71
2021/10/14 01:25:48;;;;;;;14.55;9.30;;;;;;;3.21;78.22;99124.88;4953025;29;20027;-71
2021/10/14 01:28:15;;;;;;;15.95;8.02;;;;;;;3.19;78.04;99132.41;4952987;29;20285;-71
2021/10/14 01:30:41;;;;;;;13.63;9.13;;;;;;;3.11;77.87;99130.88;4952787;29;20059;-71
2021/10/14 01:33:07;;;;;;;17.50;10.32;;;;;;;3.10;78.16;99129.22;4952994;29;20031;-72
2021/10/14 01:35:33;;;;;;;14.10;9.13;;;;;;;3.13;77.57;99131.47;4952683;28;20035;-71
2021/10/14 01:37:58;;;;;;;15.90;10.50;;;;;;;3.10;78.33;99126.50;4952783;29;20027;-71
2021/10/14 01:40:24;;;;;;;17.83;11.70;;;;;;;3.09;78.49;99127.56;4954003;29;20034;-71
2021/10/14 01:42:49;;;;;;;17.77;10.50;;;;;;;3.06;78.04;99127.19;4952433;29;20031;-71
2021/10/14 01:45:15;;;;;;;16.77;10.05;;;;;;;3.01;78.19;99124.38;4952763;29;20027;-71
2021/10/14 01:47:40;;;;;;;17.90;10.65;;;;;;;3.01;78.53;99129.78;4952929;29;20109;-70
2021/10/14 01:50:07;;;;;;;15.07;9.07;;;;;;;3.00;78.51;99128.13;4952610;29;20107;-70
2021/10/14 01:52:32;;;;;;;13.40;8.98;;;;;;;3.01;78.37;99137.91;4952658;29;20027;-71
2021/10/14 01:54:58;;;;;;;15.70;9.48;;;;;;;3.01;78.33;99130.59;4952395;29;20478;-71
2021/10/14 01:57:23;;;;;;;18.30;9.65;;;;;;;2.97;78.76;99138.38;4952106;29;20448;-70
2021/10/14 01:59:49;;;;;;;15.02;9.77;;;;;;;2.97;78.15;99124.81;4952570;29;20030;-71
2021/10/14 02:02:14;;;;;;;16.58;9.30;;;;;;;2.98;78.25;99128.34;4952629;29;20813;-71
2021/10/14 02:04:40;;;;;;;15.38;9.48;;;;;;;2.95;77.92;99129.63;4952278;29;20022;-71
2021/10/14 02:07:05;;;;;;;13.38;8.75;;;;;;;2.93;77.84;99137.16;4952549;29;20097;-71
2021/10/14 02:09:30;;;;;;;16.20;9.75;;;;;;;2.93;78.20;99137.16;4952602;29;20531;-71
2021/10/14 02:11:56;;;;;;;20.17;13.20;;;;;;;2.90;78.23;99131.38;4952458;29;20039;-71
2021/10/14 02:14:21;;;;;;;15.25;9.20;;;;;;;2.90;77.39;99131.38;4952098;29;20030;-71
2021/10/14 02:16:47;;;;;;;16.45;11.18;;;;;;;2.90;78.03;99134.91;4952278;29;20053;-71
2021/10/14 02:19:12;;;;;;;12.43;8.60;;;;;;;2.91;78.42;99133.88;4952603;29;20051;-70
2021/10/14 02:21:38;;;;;;;13.25;9.00;;;;;;;2.93;77.83;99139.88;4952159;29;20031;-81
2021/10/14 02:24:03;;;;;;;17.85;10.07;;;;;;;2.93;78.13;99139.03;4952145;29;20027;-81
2021/10/14 02:26:29;;;;;;;20.85;10.60;;;;;;;2.94;78.53;99130.69;4952072;29;20034;-75
2021/10/14 02:28:54;;;;;;;14.02;8.50;;;;;;;2.97;78.45;99126.69;4951187;29;20043;-75
2021/10/14 02:31:20;;;;;;;17.88;10.57;;;;;;;2.98;78.13;99134.59;4951061;29;20029;-77
2021/10/14 02:33:46;;;;;;;15.85;9.73;;;;;;;3.00;78.05;99130.84;4951964;29;20470;-75
2021/10/14 02:36:11;;;;;;;14.38;8.88;;;;;;;2.98;77.71;99131.91;4951890;29;20050;-75
2021/10/14 02:38:36;;;;;;;14.20;9.23;;;;;;;2.98;78.40;99137.31;4951759;29;20028;-75
2021/10/14 02:41:02;;;;;;;13.20;8.05;;;;;;;2.98;77.60;99131.06;4951651;29;20365;-76
2021/10/14 02:43:29;;;;;;;14.98;8.95;;;;;;;2.99;77.95;99127.28;4951983;29;20105;-75
2021/10/14 02:45:54;;;;;;;13.25;8.40;;;;;;;2.97;77.68;99132.94;4951342;29;20460;-76
2021/10/14 02:48:20;;;;;;;14.68;8.15;;;;;;;2.94;77.31;99125.28;4950819;28;20038;-76
2021/10/14 02:50:46;;;;;;;16.52;9.38;;;;;;;2.91;77.81;99128.44;4951754;29;20039;-76
2021/10/14 02:53:11;;;;;;;13.10;8.40;;;;;;;2.89;77.81;99138.69;4935617;29;20019;-76
2021/10/14 02:55:37;;;;;;;15.52;9.18;;;;;;;2.86;77.17;99131.00;4950379;29;20516;-77
2021/10/14 02:58:02;;;;;;;15.98;8.88;;;;;;;2.83;77.98;99131.47;4952915;29;20074;-77
2021/10/14 03:00:27;;;;;;;13.65;8.48;;;;;;;2.80;77.25;99132.75;4952599;29;20098;-76
2021/10/14 03:02:53;;;;;;;14.63;8.40;;;;;;;2.79;77.43;99136.53;4952495;29;20062;-76
2021/10/14 03:05:18;;;;;;;11.68;7.15;;;;;;;2.81;77.60;99139.00;4934566;29;20031;-77
2021/10/14 03:07:44;;;;;;;13.75;8.25;;;;;;;2.81;77.86;99139.00;4952546;29;20097;-76
2021/10/14 03:10:09;;;;;;;15.55;8.80;;;;;;;2.79;77.22;99147.34;4952410;29;20154;-76
2021/10/14 03:12:35;;;;;;;14.52;7.75;;;;;;;2.80;77.77;99150.88;4952254;29;20044;-76
2021/10/14 03:15:00;;;;;;;13.40;8.30;;;;;;;2.78;77.10;99155.69;4952595;29;20040;-76
2021/10/14 03:17:27;;;;;;;19.25;10.90;;;;;;;2.78;77.26;99159.25;4935839;29;20484;-77
2021/10/14 03:19:53;;;;;;;14.63;8.38;;;;;;;2.78;77.22;99164.66;4952561;29;20027;-76
2021/10/14 03:22:18;;;;;;;17.08;9.68;;;;;;;2.76;77.08;99163.22;4952131;29;20472;-76
2021/10/14 03:24:44;;;;;;;15.15;7.90;;;;;;;2.73;77.36;99169.09;4951590;29;20035;-76
2021/10/14 03:27:09;;;;;;;14.10;7.78;;;;;;;2.72;77.31;99171.00;4934994;29;20041;-75
2021/10/14 03:29:34;;;;;;;13.48;7.60;;;;;;;2.68;77.02;99173.31;4951928;29;20115;-76
2021/10/14 03:32:00;;;;;;;15.90;7.97;;;;;;;2.69;77.39;99176.88;4950371;29;20043;-77
2021/10/14 03:34:25;;;;;;;14.07;7.55;;;;;;;2.69;77.20;99174.16;4952357;29;20034;-76
2021/10/14 03:36:51;;;;;;;20.90;8.20;;;;;;;2.64;76.86;99188.38;4935177;29;20081;-76
2021/10/14 03:39:16;;;;;;;15.82;9.38;;;;;;;2.63;76.93;99184.03;4951986;29;20034;-76
2021/10/14 03:41:42;;;;;;;15.80;8.93;;;;;;;2.64;77.59;99184.84;4951647;29;20023;-76
2021/10/14 03:44:07;;;;;;;14.10;8.35;;;;;;;2.66;76.79;99186.25;4951604;29;20618;-76
2021/10/14 03:46:32;;;;;;;17.05;9.40;;;;;;;2.68;77.41;99177.91;4935023;29;20030;-77
2021/10/14 03:48:58;;;;;;;15.68;8.48;;;;;;;2.70;77.56;99170.38;4950900;29;20043;-78
2021/10/14 03:51:23;;;;;;;13.77;7.82;;;;;;;2.67;77.31;99182.50;4950361;29;20031;-77
2021/10/14 03:53:49;;;;;;;13.73;7.57;;;;;;;2.65;77.31;99178.38;4951479;29;20038;-77
2021/10/14 03:56:15;;;;;;;14.48;8.57;;;;;;;2.63;77.38;99175.91;4947234;29;20039;-77
2021/10/14 03:58:40;;;;;;;13.07;8.18;;;;;;;2.57;76.70;99179.50;4948983;28;20042;-76
2021/10/14 04:01:05;;;;;;;13.73;7.95;;;;;;;2.48;76.25;99178.94;4950764;29;20066;-77
2021/10/14 04:03:31;;;;;;;17.85;9.13;;;;;;;2.43;76.35;99186.09;4951505;29;20031;-77
2021/10/14 04:05:56;;;;;;;19.73;11.98;;;;;;;2.40;76.61;99189.25;4951100;29;20078;-77
2021/10/14 04:08:22;;;;;;;19.92;11.38;;;;;;;2.35;76.76;99188.06;4951158;29;20476;-77
2021/10/14 04:10:47;;;;;;;22.90;13.00;;;;;;;2.31;76.44;99194.97;4949771;29;20043;-77
2021/10/14 04:13:13;;;;;;;19.27;11.73;;;;;;;2.26;76.34;99196.69;4951325;29;20039;-74
2021/10/14 04:15:38;;;;;;;19.92;11.27;;;;;;;2.23;76.19;99198.78;4932419;29;20034;-75
2021/10/14 04:18:03;;;;;;;22.13;11.65;;;;;;;2.25;76.10;99195.84;4949345;29;20027;-77
2021/10/14 04:20:29;;;;;;;21.40;12.40;;;;;;;2.27;76.16;99199.16;4949668;29;20030;-77
2021/10/14 04:22:54;;;;;;;20.42;11.95;;;;;;;2.27;76.00;99203.78;4951186;29;20432;-77
2021/10/14 04:25:20;;;;;;;17.58;11.48;;;;;;;2.25;76.03;99206.69;4917311;29;20031;-77
2021/10/14 04:27:45;;;;;;;17.33;11.20;;;;;;;2.22;75.95;99205.25;4951045;29;20038;-77
2021/10/14 04:30:11;;;;;;;21.83;12.45;;;;;;;2.19;76.40;99205.69;4950916;29;20110;-75
2021/10/14 04:32:36;;;;;;;25.40;13.38;;;;;;;2.17;75.86;99207.81;4950894;29;20170;-77
2021/10/14 04:35:03;;;;;;;28.27;15.90;;;;;;;2.18;75.93;99208.66;4933506;29;20031;-77
2021/10/14 04:37:29;;;;;;;34.97;17.45;;;;;;;2.21;76.21;99197.38;4951427;29;20023;-75
2021/10/14 04:39:55;;;;;;;30.17;15.75;;;;;;;2.22;75.82;99204.44;4933481;29;20042;-77
2021/10/14 04:42:20;;;;;;;31.38;16.52;;;;;;;2.16;75.68;99203.44;4950735;29;20027;-76
2021/10/14 04:44:46;;;;;;;30.83;17.33;;;;;;;2.14;76.23;99202.03;4949947;29;20038;-77
2021/10/14 04:47:18;;;;;;;31.33;18.10;;;;;;;2.16;76.32;99208.84;4951039;29;20387;-77
2021/10/14 04:49:46;;;;;;;39.67;18.83;;;;;;;2.18;75.62;99216.75;4951137;29;20083;-75
2021/10/14 04:52:12;;;;;;;34.33;17.40;;;;;;;2.16;76.32;99211.56;4950361;29;20043;-75
2021/10/14 04:54:37;;;;;;;37.83;18.90;;;;;;;2.13;76.25;99222.00;4951131;29;20029;-76
2021/10/14 04:57:03;;;;;;;37.80;18.25;;;;;;;2.09;76.22;99229.72;4950765;29;20031;-76
2021/10/14 04:59:28;;;;;;;43.40;22.45;;;;;;;2.08;75.67;99222.66;4951675;29;20432;-76
2021/10/14 05:01:53;;;;;;;43.17;21.45;;;;;;;2.06;76.42;99231.00;4951098;29;20074;-75
2021/10/14 05:04:19;;;;;;;39.28;19.80;;;;;;;2.06;75.96;99230.16;4951158;29;20031;-74
2021/10/14 05:06:44;;;;;;;32.35;17.55;;;;;;;2.05;75.52;99229.34;4950560;29;20431;-75
2021/10/14 05:09:10;;;;;;;34.67;19.20;;;;;;;2.00;75.37;99233.78;4951466;29;20032;-75
2021/10/14 05:11:35;;;;;;;43.75;21.70;;;;;;;1.98;76.00;99230.47;4934236;29;20043;-75
2021/10/14 05:14:01;;;;;;;47.95;22.73;;;;;;;1.98;76.08;99231.28;4954037;29;20054;-75
2021/10/14 05:16:26;;;;;;;38.83;20.42;;;;;;;2.00;76.18;99231.09;4954077;29;20115;-75
2021/10/14 05:18:52;;;;;;;38.95;19.98;;;;;;;2.01;76.11;99230.84;4954569;29;20034;-75
2021/10/14 05:21:17;;;;;;;36.15;18.77;;;;;;;2.04;76.19;99235.81;4954488;29;20035;-75
2021/10/14 05:23:42;;;;;;;41.83;22.48;;;;;;;1.97;75.64;99235.03;4954289;29;20019;-75
2021/10/14 05:26:08;;;;;;;39.58;23.00;;;;;;;1.92;75.97;99230.31;4954152;29;20028;-75
2021/10/14 05:28:33;;;;;;;44.40;25.40;;;;;;;1.92;76.31;99232.16;4937268;29;20032;-75
2021/10/14 05:30:59;;;;;;;46.30;26.80;;;;;;;1.98;76.08;99225.06;4954139;29;20027;-75
2021/10/14 05:33:24;;;;;;;44.30;24.63;;;;;;;2.03;76.31;99238.75;4954095;29;20023;-75
2021/10/14 05:35:49;;;;;;;42.80;26.10;;;;;;;2.06;75.88;99232.88;4953763;29;20483;-75
2021/10/14 05:38:15;;;;;;;39.58;25.17;;;;;;;2.05;76.16;99229.34;4937158;29;20042;-75
2021/10/14 05:40:41;;;;;;;43.25;23.88;;;;;;;2.03;75.50;99239.56;4936933;29;20051;-75
2021/10/14 05:43:07;;;;;;;40.03;21.83;;;;;;;2.07;75.81;99238.09;4953494;29;20475;-75
2021/10/14 05:45:33;;;;;;;46.15;24.98;;;;;;;2.12;75.91;99237.41;4952962;29;20054;-75
2021/10/14 05:47:58;;;;;;;45.67;27.50;;;;;;;2.17;76.01;99242.19;4954416;29;20023;-74
2021/10/14 05:50:24;;;;;;;40.35;23.02;;;;;;;2.21;76.14;99244.22;4936494;29;20487;-76
2021/10/14 05:52:49;;;;;;;39.53;20.58;;;;;;;2.30;76.74;99250.16;4936223;29;20039;-75
2021/10/14 05:55:15;;;;;;;42.30;23.13;;;;;;;2.41;76.70;99247.78;4953338;29;20030;-75
2021/10/14 05:57:40;;;;;;;44.15;24.90;;;;;;;2.56;76.44;99245.56;4953555;29;20090;-75
2021/10/14 06:00:06;;;;;;;35.47;22.17;;;;;;;2.72;76.63;99240.56;4952388;29;20034;-75
2021/10/14 06:02:32;;;;;;;39.67;21.38;;;;;;;2.80;76.14;99246.53;4952021;29;20031;-76
2021/10/14 06:04:57;;;;;;;43.15;20.73;;;;;;;2.90;76.96;99242.44;4952386;29;20158;-75
2021/10/14 06:07:23;;;;;;;47.58;23.63;;;;;;;2.96;76.09;99236.13;4953585;29;20046;-75
2021/10/14 06:09:50;;;;;;;49.97;24.00;;;;;;;3.07;75.91;99250.78;4936009;29;20023;-75
2021/10/14 06:12:15;;;;;;;59.90;28.30;;;;;;;3.17;76.56;99245.66;4953073;29;20050;-74
2021/10/14 06:14:41;;;;;;;52.58;26.70;;;;;;;3.27;76.51;99247.84;4952787;29;20035;-75
2021/10/14 06:17:06;;;;;;;55.25;28.15;;;;;;;3.35;77.06;99249.41;4953204;29;20126;-75
2021/10/14 06:19:32;;;;;;;46.58;25.52;;;;;;;3.37;76.38;99244.59;4953656;29;20380;-75
2021/10/14 06:21:57;;;;;;;51.45;26.17;;;;;;;3.38;76.74;99249.78;4953050;28;20066;-75
2021/10/14 06:24:23;;;;;;;53.60;26.35;;;;;;;3.39;76.91;99237.06;4952668;29;20031;-75
2021/10/14 06:26:48;;;;;;;41.40;22.98;;;;;;;3.45;76.12;99233.44;4953288;29;20027;-74
2021/10/14 06:29:14;;;;;;;41.13;21.88;;;;;;;3.57;76.57;99238.88;4953139;29;20035;-74
2021/10/14 06:31:39;;;;;;;43.83;23.40;;;;;;;3.69;76.83;99228.88;4952102;29;20039;-75
2021/10/14 06:34:05;;;;;;;48.00;22.20;;;;;;;3.82;76.44;99232.47;4950885;29;20035;-76
2021/10/14 06:36:31;;;;;;;38.15;19.00;;;;;;;3.92;77.10;99230.00;4953256;29;20035;-75
2021/10/14 06:38:57;;;;;;;45.95;23.25;;;;;;;3.90;76.54;99229.41;4953393;29;20038;-75
2021/10/14 06:41:22;;;;;;;47.90;24.77;;;;;;;3.96;76.56;99231.19;4954475;29;20027;-76
2021/10/14 06:43:47;;;;;;;58.28;27.45;;;;;;;4.02;76.43;99226.72;4951751;29;20015;-74
2021/10/14 06:46:13;;;;;;;69.97;31.30;;;;;;;4.14;76.37;99234.84;4952636;29;20027;-75
2021/10/14 06:48:38;;;;;;;50.97;23.65;;;;;;;4.19;76.27;99232.28;4953150;29;20097;-75
2021/10/14 06:51:04;;;;;;;41.80;22.00;;;;;;;4.23;76.61;99229.94;4950912;29;20019;-76
2021/10/14 06:53:31;;;;;;;44.60;22.92;;;;;;;4.29;76.82;99232.53;4953072;29;20361;-74
2021/10/14 06:55:56;;;;;;;45.60;23.00;;;;;;;4.40;76.92;99235.47;4935262;29;20384;-75
2021/10/14 06:58:22;;;;;;;39.67;21.48;;;;;;;4.50;76.67;99241.13;4952980;29;20478;-75
2021/10/14 07:00:47;;;;;;;42.30;23.45;;;;;;;4.56;76.44;99236.66;4952574;29;20506;-75
2021/10/14 07:03:13;;;;;;;42.47;22.58;;;;;;;4.58;76.75;99238.06;4952601;29;20023;-75
2021/10/14 07:05:38;;;;;;;35.70;18.33;;;;;;;4.61;76.49;99231.34;4951450;29;20050;-75
2021/10/14 07:08:04;;;;;;;40.13;20.23;;;;;;;4.66;76.86;99238.75;4952706;29;20033;-75
2021/10/14 07:10:29;;;;;;;46.03;23.67;;;;;;;4.71;76.58;99231.53;4952155;29;20086;-76
2021/10/14 07:12:55;;;;;;;40.72;22.40;;;;;;;4.78;76.79;99234.16;4951956;29;20122;-75
2021/10/14 07:15:20;;;;;;;42.72;21.77;;;;;;;4.89;76.81;99230.56;4951390;29;20066;-75
2021/10/14 07:17:46;;;;;;;42.85;22.60;;;;;;;4.99;76.50;99229.97;4951879;29;20027;-75
2021/10/14 07:20:12;;;;;;;34.30;19.23;;;;;;;5.10;76.95;99228.28;4952469;29;20026;-76
2021/10/14 07:22:38;;;;;;;35.33;19.23;;;;;;;5.16;76.21;99227.31;4934796;29;20027;-76
2021/10/14 07:25:04;;;;;;;40.17;20.80;;;;;;;5.23;76.43;99229.88;4951082;29;20070;-75
2021/10/14 07:27:30;;;;;;;37.28;18.52;;;;;;;5.34;76.19;99239.06;4950963;29;20051;-75
2021/10/14 07:29:55;;;;;;;37.05;19.88;;;;;;;5.43;76.26;99239.50;4933775;29;20035;-75
2021/10/14 07:32:21;;;;;;;35.85;19.02;;;;;;;5.50;76.59;99240.19;4951226;29;20031;-75
2021/10/14 07:34:46;;;;;;;36.20;17.67;;;;;;;5.57;76.61;99238.13;4951305;28;20019;-75
2021/10/14 07:37:13;;;;;;;37.08;19.50;;;;;;;5.63;76.50;99241.78;4951293;29;20468;-74
2021/10/14 07:39:39;;;;;;;41.15;21.10;;;;;;;5.79;76.35;99235.53;4945865;29;20110;-74
2021/10/14 07:42:05;;;;;;;33.65;18.63;;;;;;;5.96;76.59;99238.25;4951224;29;20544;-75
2021/10/14 07:44:31;;;;;;;38.20;18.83;;;;;;;6.10;76.23;99229.81;4951222;29;20519;-74
2021/10/14 07:46:58;;;;;;;41.72;21.90;;;;;;;6.27;76.10;99237.97;4950493;29;20066;-75
2021/10/14 07:49:24;;;;;;;45.28;22.55;;;;;;;6.43;76.12;99238.22;4950880;29;20035;-73
2021/10/14 07:51:49;;;;;;;31.45;18.00;;;;;;;6.59;76.28;99234.63;4950780;29;20046;-73
2021/10/14 07:54:14;;;;;;;35.35;17.10;;;;;;;6.72;75.72;99241.66;4950910;29;20039;-73
2021/10/14 07:56:40;;;;;;;42.55;19.98;;;;;;;6.84;75.58;99230.63;4952164;29;20392;-72
2021/10/14 07:59:05;;;;;;;37.80;19.98;;;;;;;6.95;75.11;99239.75;4950686;29;20038;-73
2021/10/14 08:01:31;;;;;;;38.55;20.02;;;;;;;7.04;75.36;99234.66;4952325;29;20027;-73
2021/10/14 08:03:57;;;;;;;27.98;15.73;;;;;;;7.08;74.34;99235.81;4950426;29;20122;-72
2021/10/14 08:06:23;;;;;;;28.30;15.15;;;;;;;7.18;74.06;99235.94;4951809;29;20035;-73
2021/10/14 08:08:48;;;;;;;28.77;17.17;;;;;;;7.29;74.39;99232.25;4932954;29;20829;-72
2021/10/14 08:11:13;;;;;;;29.48;15.68;;;;;;;7.38;73.95;99220.88;4934240;29;20134;-72
2021/10/14 08:13:39;;;;;;;29.90;14.88;;;;;;;7.42;73.84;99222.84;4951947;29;20057;-73
2021/10/14 08:16:05;;;;;;;24.35;12.57;;;;;;;7.37;73.28;99227.41;4933720;29;20778;-71
2021/10/14 08:18:31;;;;;;;28.73;13.88;;;;;;;7.32;72.80;99232.84;4951164;29;20062;-71
2021/10/14 08:20:58;;;;;;;19.80;10.45;;;;;;;7.26;72.61;99223.75;4951545;29;20110;-72
2021/10/14 08:23:25;;;;;;;40.97;17.52;;;;;;;7.19;72.07;99240.31;4951417;29;20432;-71
2021/10/14 08:25:51;;;;;;;22.15;11.48;;;;;;;7.10;72.54;99239.94;4933300;29;20080;-71
2021/10/14 08:28:17;;;;;;;28.23;12.02;;;;;;;7.11;72.43;99227.97;4951474;29;20031;-71
2021/10/14 08:30:42;;;;;;;19.75;10.95;;;;;;;7.15;72.73;99239.19;4934293;29;20077;-71
2021/10/14 08:33:08;;;;;;;21.85;12.32;;;;;;;7.20;72.70;99243.84;4950299;29;20039;-71
2021/10/14 08:35:37;;;;;;;17.30;9.93;;;;;;;7.26;71.81;99234.66;4949650;29;20027;-73
2021/10/14 08:38:04;;;;;;;20.45;11.18;;;;;;;7.29;72.47;99237.72;4946428;28;20038;-76
2021/10/14 08:40:30;;;;;;;15.88;9.15;;;;;;;7.34;72.19;99234.22;4952769;28;20027;-75
2021/10/14 08:43:09;;;;;;;22.48;12.40;;;;;;;7.39;72.47;99238.88;4945041;29;20492;-75
2021/10/14 08:45:37;;;;;;;21.10;11.65;;;;;;;7.43;71.63;99231.84;4947032;28;20027;-84
2021/10/14 08:48:04;;;;;;;20.27;11.45;;;;;;;7.44;71.47;99237.06;4952624;29;20041;-74
2021/10/14 08:50:32;;;;;;;19.20;10.77;;;;;;;7.51;71.55;99225.13;4951714;29;20031;-75
2021/10/14 08:52:57;;;;;;;20.02;11.07;;;;;;;7.62;71.59;99220.59;4954586;29;20027;-75
2021/10/14 08:55:23;;;;;;;25.00;12.40;;;;;;;7.74;71.27;99224.00;4954585;29;20027;-75
2021/10/14 08:57:48;;;;;;;20.13;11.73;;;;;;;7.95;71.49;99224.16;4952087;29;20479;-75
2021/10/14 09:00:14;;;;;;;20.33;10.65;;;;;;;8.12;71.64;99221.28;4953119;29;20086;-75
2021/10/14 09:02:44;;;;;;;13.43;7.75;;;;;;;8.26;70.71;99218.94;4951417;29;20031;-75
2021/10/14 09:05:13;;;;;;;13.25;7.65;;;;;;;8.37;70.87;99217.09;4954059;29;20066;-75
2021/10/14 09:07:39;;;;;;;13.38;7.55;;;;;;;8.47;69.77;99215.25;4954025;29;20023;-75
2021/10/14 09:10:14;;;;;;;10.80;6.82;;;;;;;8.58;69.90;99218.06;4954752;29;20086;-75
2021/10/14 09:12:45;;;;;;;13.18;8.55;;;;;;;8.72;69.68;99221.19;4955042;29;20031;-74
2021/10/14 09:15:18;;;;;;;13.85;8.38;;;;;;;8.86;68.05;99216.84;4936380;29;20110;-74
2021/10/14 09:17:51;;;;;;;15.02;8.45;;;;;;;8.93;68.50;99211.16;4954947;29;20035;-74
2021/10/14 09:20:34;;;;;;;14.05;7.93;;;;;;;9.06;67.73;99207.13;4955152;29;20039;-77
2021/10/14 09:23:03;;;;;;;16.20;8.55;;;;;;;9.08;67.96;99207.66;4955023;29;20032;-75
2021/10/14 09:25:38;;;;;;;13.27;7.05;;;;;;;9.09;68.19;99201.91;4953995;29;20031;-74
2021/10/14 09:28:15;;;;;;;14.52;7.45;;;;;;;9.16;67.18;99203.56;4954649;29;20031;-74
2021/10/14 09:30:48;;;;;;;17.38;8.98;;;;;;;9.17;66.94;99206.03;4954494;29;20488;-75
2021/10/14 09:33:47;;;;;;;11.25;7.05;;;;;;;9.32;67.58;99194.34;4954690;28;20057;-74
2021/10/14 09:36:17;;;;;;;15.05;9.23;;;;;;;9.46;66.12;99208.31;4892425;29;20377;-75
2021/10/14 09:38:45;;;;;;;14.90;7.95;;;;;;;9.57;67.62;99198.22;4936516;29;20035;-73
2021/10/14 09:41:14;;;;;;;14.73;8.02;;;;;;;9.65;66.04;99194.09;4954015;29;20185;-72
2021/10/14 09:43:41;;;;;;;20.45;10.68;;;;;;;9.63;65.76;99196.28;4954718;29;20381;-72
2021/10/14 09:46:07;;;;;;;15.38;8.68;;;;;;;9.75;67.13;99205.06;4954099;29;20027;-71
2021/10/14 09:48:36;;;;;;;15.98;9.65;;;;;;;9.96;66.01;99199.63;4953372;29;20089;-74
2021/10/14 09:51:02;;;;;;;16.92;9.65;;;;;;;10.10;66.16;99188.94;4936142;29;20023;-73
2021/10/14 09:53:27;;;;;;;19.50;9.95;;;;;;;10.25;66.49;99201.78;4954386;29;20070;-74
2021/10/14 09:55:55;;;;;;;16.10;9.80;;;;;;;10.28;64.50;99195.75;4954991;29;20057;-73
2021/10/14 09:58:25;;;;;;;13.93;8.65;;;;;;;10.26;64.53;99184.25;4951412;28;20035;-74
2021/10/14 10:00:51;;;;;;;15.85;9.90;;;;;;;10.36;64.14;99191.63;4945357;28;20070;-74
2021/10/14 10:03:19;;;;;;;12.55;7.70;;;;;;;10.50;64.66;99192.75;4954335;28;20031;-76
2021/10/14 10:05:47;;;;;;;13.10;8.63;;;;;;;10.63;62.74;99187.75;4936566;29;20563;-75
2021/10/14 10:08:21;;;;;;;14.55;9.00;;;;;;;10.74;62.71;99181.16;4950756;29;20069;-79
2021/10/14 10:10:48;;;;;;;16.58;8.13;;;;;;;10.82;63.72;99177.00;4951276;29;20504;-77
2021/10/14 10:13:16;;;;;;;12.75;8.48;;;;;;;10.93;61.26;99178.59;4936849;29;20070;-75
2021/10/14 10:15:49;;;;;;;14.18;7.30;;;;;;;11.02;61.10;99182.41;4953796;29;20042;-76
2021/10/14 10:18:27;;;;;;;11.70;6.35;;;;;;;11.05;58.59;99181.00;4947392;29;20483;-74
2021/10/14 10:20:54;;;;;;;10.65;5.80;;;;;;;11.05;60.88;99178.25;4952360;29;20037;-75
2021/10/14 10:23:51;;;;;;;9.60;5.65;;;;;;;11.15;59.99;99175.47;4953214;29;20050;-76
2021/10/14 10:26:34;;;;;;;8.65;5.22;;;;;;;11.24;59.93;99175.69;4952907;29;20039;-76
2021/10/14 10:29:04;;;;;;;10.20;4.95;;;;;;;11.37;60.19;99166.03;4951765;29;20050;-75
2021/10/14 10:31:56;;;;;;;7.32;4.20;;;;;;;11.43;57.80;99175.06;4952744;29;20043;-76
2021/10/14 10:37:28;;;;;;;10.35;4.28;;;;;;;11.37;56.66;99155.06;4951710;29;20039;-74
2021/10/14 10:40:01;;;;;;;10.73;5.70;;;;;;;11.41;57.74;99158.03;4952064;29;20429;-76
2021/10/14 10:42:40;;;;;;;10.20;5.28;;;;;;;11.46;57.44;99152.50;4952628;29;20031;-76
2021/10/14 10:45:27;;;;;;;9.13;5.30;;;;;;;11.43;55.12;99153.09;4952521;29;20570;-75
2021/10/14 10:47:58;;;;;;;9.32;4.75;;;;;;;11.47;55.85;99152.22;4951403;29;20106;-78
2021/10/14 10:50:45;;;;;;;9.88;5.15;;;;;;;11.50;55.16;99150.84;4952444;29;20022;-77
2021/10/14 10:53:23;;;;;;;11.25;5.63;;;;;;;11.56;55.48;99148.88;4951944;29;20039;-78
2021/10/14 10:55:51;;;;;;;10.07;5.65;;;;;;;11.58;55.68;99141.16;4952212;29;20489;-76
2021/10/14 10:58:44;;;;;;;12.02;6.18;;;;;;;11.69;55.62;99133.66;4952212;29;20046;-75
2021/10/14 11:01:09;;;;;;;13.90;6.78;;;;;;;11.84;54.45;99129.97;4953180;29;20498;-76
2021/10/14 11:03:37;;;;;;;16.98;8.90;;;;;;;11.87;54.38;99130.22;4953490;29;20039;-74
2021/10/14 11:06:09;;;;;;;51.58;23.38;;;;;;;11.88;53.49;99126.38;4946409;29;20264;-74
2021/10/14 11:08:36;;;;;;;20.30;10.40;;;;;;;11.84;52.43;99125.28;4951471;28;20114;-73
2021/10/14 11:11:11;;;;;;;10.40;5.40;;;;;;;11.81;51.38;99131.38;4933259;29;20069;-74
2021/10/14 11:13:39;;;;;;;13.93;8.25;;;;;;;11.83;52.94;99131.91;4951711;29;20041;-75
2021/10/14 11:16:07;;;;;;;12.90;8.38;;;;;;;11.93;53.56;99127.44;4934311;29;20047;-75
2021/10/14 11:18:35;;;;;;;6.15;3.58;;;;;;;11.95;51.90;99120.53;4952305;29;20488;-75
2021/10/14 11:21:06;;;;;;;7.03;3.35;;;;;;;11.78;51.42;99112.69;4952341;29;20481;-75
2021/10/14 11:23:39;;;;;;;7.47;3.08;;;;;;;11.64;50.90;99109.81;4952843;29;20070;-76
2021/10/14 11:26:15;;;;;;;6.05;2.75;;;;;;;11.61;51.10;99115.88;4949966;29;20158;-76
2021/10/14 11:29:16;;;;;;;8.40;4.15;;;;;;;11.64;49.60;99117.22;4951420;29;20095;-75
2021/10/14 11:32:00;;;;;;;6.97;5.30;;;;;;;11.74;50.59;99109.72;4933436;28;20066;-77